sensor_id;sensor_type;location;lat;lon;timestamp;temperature;humidity
20921;DHT22;10620;52.472;21.028;2022-08-03T00:02:18;15.10;99.90
20921;DHT22;10620;52.472;21.028;2022-08-03T00:04:48;15.20;99.90
20921;DHT22;10620;52.472;21.028;2022-08-03T00:07:17;15.20;99.90
20921;DHT22;10620;52.472;21.028;2022-08-03T00:09:45;15.10;99.90
20921;DHT22;10620;52.472;21.028;2022-08-03T00:12:14;15.10;99.90
20921;DHT22;10620;52.472;21.028;2022-08-03T00:14:43;15.00;99.90
20921;DHT22;10620;52.472;21.028;2022-08-03T00:17:12;15.00;99.90
20921;DHT22;10620;52.472;21.028;2022-08-03T00:19:40;15.00;99.90
20921;DHT22;10620;52.472;21.028;2022-08-03T00:22:10;15.00;99.90
20921;DHT22;10620;52.472;21.028;2022-08-03T00:24:39;15.00;99.90
20921;DHT22;10620;52.472;21.028;2022-08-03T00:27:07;15.00;99.90
20921;DHT22;10620;52.472;21.028;2022-08-03T00:29:42;15.00;99.90
20921;DHT22;10620;52.472;21.028;2022-08-03T00:32:26;14.90;99.90
20921;DHT22;10620;52.472;21.028;2022-08-03T00:34:55;14.80;99.90
20921;DHT22;10620;52.472;21.028;2022-08-03T00:37:26;14.80;99.90
20921;DHT22;10620;52.472;21.028;2022-08-03T00:40:09;14.70;99.90
20921;DHT22;10620;52.472;21.028;2022-08-03T00:42:51;14.70;99.90
20921;DHT22;10620;52.472;21.028;2022-08-03T00:45:20;14.70;99.90
20921;DHT22;10620;52.472;21.028;2022-08-03T00:47:49;14.60;99.90
20921;DHT22;10620;52.472;21.028;2022-08-03T00:50:19;14.60;99.90
20921;DHT22;10620;52.472;21.028;2022-08-03T00:52:51;14.70;99.90
20921;DHT22;10620;52.472;21.028;2022-08-03T00:55:20;14.70;99.90
20921;DHT22;10620;52.472;21.028;2022-08-03T00:57:48;14.70;99.90
20921;DHT22;10620;52.472;21.028;2022-08-03T01:00:18;14.70;99.90
20921;DHT22;10620;52.472;21.028;2022-08-03T01:02:49;14.60;99.90
20921;DHT22;10620;52.472;21.028;2022-08-03T01:05:18;14.30;99.90
20921;DHT22;10620;52.472;21.028;2022-08-03T01:07:53;14.50;99.90
20921;DHT22;10620;52.472;21.028;2022-08-03T01:10:27;14.40;99.90
20921;DHT22;10620;52.472;21.028;2022-08-03T01:13:01;14.40;99.90
20921;DHT22;10620;52.472;21.028;2022-08-03T01:15:33;14.30;99.90
20921;DHT22;10620;52.472;21.028;2022-08-03T01:18:05;14.30;99.90
20921;DHT22;10620;52.472;21.028;2022-08-03T01:20:36;14.30;99.90
20921;DHT22;10620;52.472;21.028;2022-08-03T01:23:10;14.40;99.90
20921;DHT22;10620;52.472;21.028;2022-08-03T01:25:54;14.40;99.90
20921;DHT22;10620;52.472;21.028;2022-08-03T01:28:38;14.50;99.90
20921;DHT22;10620;52.472;21.028;2022-08-03T01:31:11;14.40;99.90
20921;DHT22;10620;52.472;21.028;2022-08-03T01:33:41;14.30;99.90
20921;DHT22;10620;52.472;21.028;2022-08-03T01:36:11;14.30;99.90
20921;DHT22;10620;52.472;21.028;2022-08-03T01:38:42;14.20;99.90
20921;DHT22;10620;52.472;21.028;2022-08-03T01:41:15;14.20;99.90
20921;DHT22;10620;52.472;21.028;2022-08-03T01:43:45;14.30;99.90
20921;DHT22;10620;52.472;21.028;2022-08-03T01:46:37;14.30;99.90
20921;DHT22;10620;52.472;21.028;2022-08-03T01:49:15;14.30;99.90
20921;DHT22;10620;52.472;21.028;2022-08-03T01:51:44;14.30;99.90
20921;DHT22;10620;52.472;21.028;2022-08-03T01:54:31;14.20;99.90
20921;DHT22;10620;52.472;21.028;2022-08-03T01:57:00;14.20;99.90
20921;DHT22;10620;52.472;21.028;2022-08-03T01:59:30;14.10;99.90
20921;DHT22;10620;52.472;21.028;2022-08-03T02:02:01;14.10;99.90
20921;DHT22;10620;52.472;21.028;2022-08-03T02:04:51;14.00;99.90
20921;DHT22;10620;52.472;21.028;2022-08-03T02:07:21;14.00;99.90
20921;DHT22;10620;52.472;21.028;2022-08-03T02:09:51;14.00;99.90
20921;DHT22;10620;52.472;21.028;2022-08-03T02:12:21;13.90;99.90
20921;DHT22;10620;52.472;21.028;2022-08-03T02:14:51;13.90;99.90
20921;DHT22;10620;52.472;21.028;2022-08-03T02:17:22;13.90;99.90
20921;DHT22;10620;52.472;21.028;2022-08-03T02:20:06;13.90;99.90
20921;DHT22;10620;52.472;21.028;2022-08-03T02:22:37;13.90;99.90
20921;DHT22;10620;52.472;21.028;2022-08-03T02:25:07;13.90;99.90
20921;DHT22;10620;52.472;21.028;2022-08-03T02:27:37;13.80;99.90
20921;DHT22;10620;52.472;21.028;2022-08-03T02:30:10;13.80;99.90
20921;DHT22;10620;52.472;21.028;2022-08-03T02:32:41;13.80;99.90
20921;DHT22;10620;52.472;21.028;2022-08-03T02:35:12;13.80;99.90
20921;DHT22;10620;52.472;21.028;2022-08-03T02:37:43;13.90;99.90
20921;DHT22;10620;52.472;21.028;2022-08-03T02:40:17;13.90;99.90
20921;DHT22;10620;52.472;21.028;2022-08-03T02:42:46;13.90;99.90
20921;DHT22;10620;52.472;21.028;2022-08-03T02:45:16;14.00;99.90
20921;DHT22;10620;52.472;21.028;2022-08-03T02:47:47;14.00;99.90
20921;DHT22;10620;52.472;21.028;2022-08-03T02:50:21;14.00;99.90
20921;DHT22;10620;52.472;21.028;2022-08-03T02:52:51;14.10;99.90
20921;DHT22;10620;52.472;21.028;2022-08-03T02:55:20;14.10;99.90
20921;DHT22;10620;52.472;21.028;2022-08-03T02:57:49;14.10;99.90
20921;DHT22;10620;52.472;21.028;2022-08-03T03:00:19;14.10;99.90
20921;DHT22;10620;52.472;21.028;2022-08-03T03:02:57;14.10;99.90
20921;DHT22;10620;52.472;21.028;2022-08-03T03:05:27;14.10;99.90
20921;DHT22;10620;52.472;21.028;2022-08-03T03:08:17;14.10;99.90
20921;DHT22;10620;52.472;21.028;2022-08-03T03:10:52;14.20;99.90
20921;DHT22;10620;52.472;21.028;2022-08-03T03:13:22;14.20;99.90
20921;DHT22;10620;52.472;21.028;2022-08-03T03:15:51;14.20;99.90
20921;DHT22;10620;52.472;21.028;2022-08-03T03:18:21;14.20;99.90
20921;DHT22;10620;52.472;21.028;2022-08-03T03:20:51;14.20;99.90
20921;DHT22;10620;52.472;21.028;2022-08-03T03:23:20;14.30;99.90
20921;DHT22;10620;52.472;21.028;2022-08-03T03:25:49;14.30;99.90
20921;DHT22;10620;52.472;21.028;2022-08-03T03:28:19;14.40;99.90
20921;DHT22;10620;52.472;21.028;2022-08-03T03:30:47;14.40;99.90
20921;DHT22;10620;52.472;21.028;2022-08-03T03:33:19;14.50;99.90
20921;DHT22;10620;52.472;21.028;2022-08-03T03:35:49;14.60;99.90
20921;DHT22;10620;52.472;21.028;2022-08-03T03:38:19;14.60;99.90
20921;DHT22;10620;52.472;21.028;2022-08-03T03:40:48;13.00;99.90
20921;DHT22;10620;52.472;21.028;2022-08-03T03:43:17;14.80;99.90
20921;DHT22;10620;52.472;21.028;2022-08-03T03:45:46;14.80;99.90
20921;DHT22;10620;52.472;21.028;2022-08-03T03:48:15;14.90;99.90
20921;DHT22;10620;52.472;21.028;2022-08-03T03:50:43;14.90;99.90
20921;DHT22;10620;52.472;21.028;2022-08-03T03:53:14;15.00;99.90
20921;DHT22;10620;52.472;21.028;2022-08-03T03:55:43;15.00;99.90
20921;DHT22;10620;52.472;21.028;2022-08-03T03:58:29;15.10;99.90
20921;DHT22;10620;52.472;21.028;2022-08-03T04:00:58;15.20;99.90
20921;DHT22;10620;52.472;21.028;2022-08-03T04:03:27;15.30;99.90
20921;DHT22;10620;52.472;21.028;2022-08-03T04:05:56;15.40;99.90
20921;DHT22;10620;52.472;21.028;2022-08-03T04:08:43;15.50;99.90
20921;DHT22;10620;52.472;21.028;2022-08-03T04:11:30;15.50;99.90
20921;DHT22;10620;52.472;21.028;2022-08-03T04:14:02;15.60;99.90
20921;DHT22;10620;52.472;21.028;2022-08-03T04:16:34;15.80;99.90
20921;DHT22;10620;52.472;21.028;2022-08-03T04:19:10;15.90;99.90
20921;DHT22;10620;52.472;21.028;2022-08-03T04:21:41;16.00;99.90
20921;DHT22;10620;52.472;21.028;2022-08-03T04:24:12;16.10;99.90
20921;DHT22;10620;52.472;21.028;2022-08-03T04:26:42;16.30;99.90
20921;DHT22;10620;52.472;21.028;2022-08-03T04:29:14;16.40;99.90
20921;DHT22;10620;52.472;21.028;2022-08-03T04:31:43;16.60;99.90
20921;DHT22;10620;52.472;21.028;2022-08-03T04:34:12;16.80;99.90
20921;DHT22;10620;52.472;21.028;2022-08-03T04:36:43;16.90;99.90
20921;DHT22;10620;52.472;21.028;2022-08-03T04:39:17;17.20;99.90
20921;DHT22;10620;52.472;21.028;2022-08-03T04:41:48;17.30;99.90
20921;DHT22;10620;52.472;21.028;2022-08-03T04:44:34;17.40;99.90
20921;DHT22;10620;52.472;21.028;2022-08-03T04:47:04;17.50;99.90
20921;DHT22;10620;52.472;21.028;2022-08-03T04:49:33;17.60;99.90
20921;DHT22;10620;52.472;21.028;2022-08-03T04:52:03;17.70;99.90
20921;DHT22;10620;52.472;21.028;2022-08-03T04:54:39;17.80;99.90
20921;DHT22;10620;52.472;21.028;2022-08-03T04:57:08;18.10;99.90
20921;DHT22;10620;52.472;21.028;2022-08-03T04:59:48;18.20;99.90
20921;DHT22;10620;52.472;21.028;2022-08-03T05:02:28;18.30;99.90
20921;DHT22;10620;52.472;21.028;2022-08-03T05:04:58;18.40;99.90
20921;DHT22;10620;52.472;21.028;2022-08-03T05:07:26;18.60;99.90
20921;DHT22;10620;52.472;21.028;2022-08-03T05:10:05;18.80;99.90
20921;DHT22;10620;52.472;21.028;2022-08-03T05:12:43;18.90;99.90
20921;DHT22;10620;52.472;21.028;2022-08-03T05:15:12;19.00;99.90
20921;DHT22;10620;52.472;21.028;2022-08-03T05:17:42;19.10;99.90
20921;DHT22;10620;52.472;21.028;2022-08-03T05:20:10;19.30;99.90
20921;DHT22;10620;52.472;21.028;2022-08-03T05:22:42;19.40;99.90
20921;DHT22;10620;52.472;21.028;2022-08-03T05:25:12;19.40;99.90
20921;DHT22;10620;52.472;21.028;2022-08-03T05:27:46;19.40;99.90
20921;DHT22;10620;52.472;21.028;2022-08-03T05:30:15;19.30;99.90
20921;DHT22;10620;52.472;21.028;2022-08-03T05:33:00;19.30;99.90
20921;DHT22;10620;52.472;21.028;2022-08-03T05:35:29;19.30;99.90
20921;DHT22;10620;52.472;21.028;2022-08-03T05:38:18;19.30;99.90
20921;DHT22;10620;52.472;21.028;2022-08-03T05:40:56;19.40;99.90
20921;DHT22;10620;52.472;21.028;2022-08-03T05:43:45;19.40;99.90
20921;DHT22;10620;52.472;21.028;2022-08-03T05:46:14;19.50;99.90
20921;DHT22;10620;52.472;21.028;2022-08-03T05:48:42;19.70;99.90
20921;DHT22;10620;52.472;21.028;2022-08-03T05:51:11;19.80;99.90
20921;DHT22;10620;52.472;21.028;2022-08-03T05:53:45;19.70;99.90
20921;DHT22;10620;52.472;21.028;2022-08-03T05:56:16;19.80;99.90
20921;DHT22;10620;52.472;21.028;2022-08-03T05:58:45;19.90;99.90
20921;DHT22;10620;52.472;21.028;2022-08-03T06:01:18;19.90;99.90
20921;DHT22;10620;52.472;21.028;2022-08-03T06:03:48;19.90;99.90
20921;DHT22;10620;52.472;21.028;2022-08-03T06:06:18;19.90;99.90
20921;DHT22;10620;52.472;21.028;2022-08-03T06:08:47;19.80;99.90
20921;DHT22;10620;52.472;21.028;2022-08-03T06:11:17;19.80;99.90
20921;DHT22;10620;52.472;21.028;2022-08-03T06:13:46;19.80;99.90
20921;DHT22;10620;52.472;21.028;2022-08-03T06:16:15;19.90;99.90
20921;DHT22;10620;52.472;21.028;2022-08-03T06:18:44;19.80;99.90
20921;DHT22;10620;52.472;21.028;2022-08-03T06:21:13;19.90;99.90
20921;DHT22;10620;52.472;21.028;2022-08-03T06:23:43;19.90;99.90
20921;DHT22;10620;52.472;21.028;2022-08-03T06:26:21;19.90;99.90
20921;DHT22;10620;52.472;21.028;2022-08-03T06:28:49;19.80;99.90
20921;DHT22;10620;52.472;21.028;2022-08-03T06:31:21;19.80;99.90
20921;DHT22;10620;52.472;21.028;2022-08-03T06:33:58;19.90;99.90
20921;DHT22;10620;52.472;21.028;2022-08-03T06:36:47;19.90;99.90
20921;DHT22;10620;52.472;21.028;2022-08-03T06:39:19;19.90;99.90
20921;DHT22;10620;52.472;21.028;2022-08-03T06:41:52;20.00;99.90
20921;DHT22;10620;52.472;21.028;2022-08-03T06:44:21;20.10;99.90
20921;DHT22;10620;52.472;21.028;2022-08-03T06:46:50;20.10;99.90
20921;DHT22;10620;52.472;21.028;2022-08-03T06:49:19;20.30;99.90
20921;DHT22;10620;52.472;21.028;2022-08-03T06:51:48;20.50;99.90
20921;DHT22;10620;52.472;21.028;2022-08-03T06:54:33;20.80;99.90
20921;DHT22;10620;52.472;21.028;2022-08-03T06:57:04;21.10;99.90
20921;DHT22;10620;52.472;21.028;2022-08-03T06:59:34;21.30;99.90
20921;DHT22;10620;52.472;21.028;2022-08-03T07:02:23;21.50;99.90
20921;DHT22;10620;52.472;21.028;2022-08-03T07:04:55;21.70;99.90
20921;DHT22;10620;52.472;21.028;2022-08-03T07:09:52;22.10;99.90
20921;DHT22;10620;52.472;21.028;2022-08-03T07:12:26;22.10;99.90
20921;DHT22;10620;52.472;21.028;2022-08-03T07:14:56;22.00;99.90
20921;DHT22;10620;52.472;21.028;2022-08-03T07:17:29;21.80;99.90
20921;DHT22;10620;52.472;21.028;2022-08-03T07:19:58;21.70;99.90
20921;DHT22;10620;52.472;21.028;2022-08-03T07:22:27;21.70;99.90
20921;DHT22;10620;52.472;21.028;2022-08-03T07:24:56;21.70;99.90
20921;DHT22;10620;52.472;21.028;2022-08-03T07:27:26;21.60;99.90
20921;DHT22;10620;52.472;21.028;2022-08-03T07:29:56;21.40;99.90
20921;DHT22;10620;52.472;21.028;2022-08-03T07:32:26;21.30;99.90
20921;DHT22;10620;52.472;21.028;2022-08-03T07:34:57;21.30;99.90
20921;DHT22;10620;52.472;21.028;2022-08-03T07:37:28;21.30;99.90
20921;DHT22;10620;52.472;21.028;2022-08-03T07:39:57;21.30;99.90
20921;DHT22;10620;52.472;21.028;2022-08-03T07:42:27;21.40;99.90
20921;DHT22;10620;52.472;21.028;2022-08-03T07:44:56;21.40;99.90
20921;DHT22;10620;52.472;21.028;2022-08-03T07:47:26;21.60;99.90
20921;DHT22;10620;52.472;21.028;2022-08-03T07:50:03;21.80;99.90
20921;DHT22;10620;52.472;21.028;2022-08-03T07:52:32;22.00;99.90
20921;DHT22;10620;52.472;21.028;2022-08-03T07:55:18;22.20;99.90
20921;DHT22;10620;52.472;21.028;2022-08-03T07:57:53;22.40;99.90
20921;DHT22;10620;52.472;21.028;2022-08-03T08:00:26;22.60;99.90
20921;DHT22;10620;52.472;21.028;2022-08-03T08:02:55;22.80;99.90
20921;DHT22;10620;52.472;21.028;2022-08-03T08:05:24;22.90;99.90
20921;DHT22;10620;52.472;21.028;2022-08-03T08:07:53;23.00;99.90
20921;DHT22;10620;52.472;21.028;2022-08-03T08:10:21;23.20;99.90
20921;DHT22;10620;52.472;21.028;2022-08-03T08:12:50;23.20;99.90
20921;DHT22;10620;52.472;21.028;2022-08-03T08:15:20;23.40;99.90
20921;DHT22;10620;52.472;21.028;2022-08-03T08:17:50;23.50;99.90
20921;DHT22;10620;52.472;21.028;2022-08-03T08:20:22;23.50;99.90
20921;DHT22;10620;52.472;21.028;2022-08-03T08:22:59;23.60;99.90
20921;DHT22;10620;52.472;21.028;2022-08-03T08:25:30;23.60;99.90
20921;DHT22;10620;52.472;21.028;2022-08-03T08:27:59;23.80;99.90
20921;DHT22;10620;52.472;21.028;2022-08-03T08:30:51;23.80;99.90
20921;DHT22;10620;52.472;21.028;2022-08-03T08:33:20;23.90;99.90
20921;DHT22;10620;52.472;21.028;2022-08-03T08:35:51;24.10;99.90
20921;DHT22;10620;52.472;21.028;2022-08-03T08:38:20;24.20;99.90
20921;DHT22;10620;52.472;21.028;2022-08-03T08:40:50;24.20;99.90
20921;DHT22;10620;52.472;21.028;2022-08-03T08:43:18;24.30;99.90
20921;DHT22;10620;52.472;21.028;2022-08-03T08:45:48;24.20;99.90
20921;DHT22;10620;52.472;21.028;2022-08-03T08:48:21;24.20;99.90
20921;DHT22;10620;52.472;21.028;2022-08-03T08:50:51;24.30;99.90
20921;DHT22;10620;52.472;21.028;2022-08-03T08:53:20;24.50;99.90
20921;DHT22;10620;52.472;21.028;2022-08-03T08:55:54;24.70;99.90
20921;DHT22;10620;52.472;21.028;2022-08-03T08:58:27;24.80;99.90
20921;DHT22;10620;52.472;21.028;2022-08-03T09:00:56;24.80;99.90
20921;DHT22;10620;52.472;21.028;2022-08-03T09:03:26;24.90;99.90
20921;DHT22;10620;52.472;21.028;2022-08-03T09:05:58;25.00;99.90
20921;DHT22;10620;52.472;21.028;2022-08-03T09:08:27;24.90;99.90
20921;DHT22;10620;52.472;21.028;2022-08-03T09:10:56;25.00;99.90
20921;DHT22;10620;52.472;21.028;2022-08-03T09:13:25;25.20;99.90
20921;DHT22;10620;52.472;21.028;2022-08-03T09:16:08;25.30;99.90
20921;DHT22;10620;52.472;21.028;2022-08-03T09:18:38;25.40;99.90
20921;DHT22;10620;52.472;21.028;2022-08-03T09:21:18;25.30;99.90
20921;DHT22;10620;52.472;21.028;2022-08-03T09:24:03;25.40;99.90
20921;DHT22;10620;52.472;21.028;2022-08-03T09:26:48;25.40;99.90
20921;DHT22;10620;52.472;21.028;2022-08-03T09:29:20;25.40;99.90
20921;DHT22;10620;52.472;21.028;2022-08-03T09:31:49;25.50;99.90
20921;DHT22;10620;52.472;21.028;2022-08-03T09:34:28;25.60;99.90
20921;DHT22;10620;52.472;21.028;2022-08-03T09:36:57;25.70;99.90
20921;DHT22;10620;52.472;21.028;2022-08-03T09:39:26;25.80;99.90
20921;DHT22;10620;52.472;21.028;2022-08-03T09:42:09;25.90;99.90
20921;DHT22;10620;52.472;21.028;2022-08-03T09:44:41;25.80;99.90
20921;DHT22;10620;52.472;21.028;2022-08-03T09:47:11;26.00;99.90
20921;DHT22;10620;52.472;21.028;2022-08-03T09:49:41;26.10;99.90
20921;DHT22;10620;52.472;21.028;2022-08-03T09:52:11;26.20;99.90
20921;DHT22;10620;52.472;21.028;2022-08-03T09:55:00;26.20;99.90
20921;DHT22;10620;52.472;21.028;2022-08-03T09:57:30;26.20;99.90
20921;DHT22;10620;52.472;21.028;2022-08-03T10:00:05;26.20;99.90
20921;DHT22;10620;52.472;21.028;2022-08-03T10:02:39;26.40;99.90
20921;DHT22;10620;52.472;21.028;2022-08-03T10:05:10;26.50;99.90
20921;DHT22;10620;52.472;21.028;2022-08-03T10:07:46;26.60;99.90
20921;DHT22;10620;52.472;21.028;2022-08-03T10:10:16;26.50;95.50
20921;DHT22;10620;52.472;21.028;2022-08-03T10:12:58;26.60;96.70
20921;DHT22;10620;52.472;21.028;2022-08-03T10:15:27;26.50;99.90
20921;DHT22;10620;52.472;21.028;2022-08-03T10:18:16;26.60;99.90
20921;DHT22;10620;52.472;21.028;2022-08-03T10:20:48;26.80;99.90
20921;DHT22;10620;52.472;21.028;2022-08-03T10:23:17;27.00;99.90
20921;DHT22;10620;52.472;21.028;2022-08-03T10:25:46;27.30;99.90
20921;DHT22;10620;52.472;21.028;2022-08-03T10:28:17;27.40;99.90
20921;DHT22;10620;52.472;21.028;2022-08-03T10:30:47;27.50;99.00
20921;DHT22;10620;52.472;21.028;2022-08-03T10:33:17;27.60;99.50
20921;DHT22;10620;52.472;21.028;2022-08-03T10:36:08;27.90;99.90
20921;DHT22;10620;52.472;21.028;2022-08-03T10:38:37;27.80;81.30
20921;DHT22;10620;52.472;21.028;2022-08-03T10:41:07;27.70;95.00
20921;DHT22;10620;52.472;21.028;2022-08-03T10:43:39;27.90;84.60
20921;DHT22;10620;52.472;21.028;2022-08-03T10:46:11;28.00;93.40
20921;DHT22;10620;52.472;21.028;2022-08-03T10:48:41;28.20;81.50
20921;DHT22;10620;52.472;21.028;2022-08-03T10:51:12;28.30;90.70
20921;DHT22;10620;52.472;21.028;2022-08-03T10:53:41;28.40;85.70
20921;DHT22;10620;52.472;21.028;2022-08-03T11:05:25;28.30;69.90
20921;DHT22;10620;52.472;21.028;2022-08-03T11:10:43;28.30;74.20
20921;DHT22;10620;52.472;21.028;2022-08-03T11:13:12;28.50;77.00
20921;DHT22;10620;52.472;21.028;2022-08-03T11:15:44;28.70;69.60
20921;DHT22;10620;52.472;21.028;2022-08-03T11:18:13;28.90;75.40
20921;DHT22;10620;52.472;21.028;2022-08-03T11:20:42;29.10;68.80
20921;DHT22;10620;52.472;21.028;2022-08-03T11:23:11;29.30;66.10
20921;DHT22;10620;52.472;21.028;2022-08-03T11:28:28;29.30;73.70
20921;DHT22;10620;52.472;21.028;2022-08-03T11:34:03;29.20;62.70
20921;DHT22;10620;52.472;21.028;2022-08-03T11:39:15;29.00;56.70
20921;DHT22;10620;52.472;21.028;2022-08-03T11:41:44;29.00;57.80
20921;DHT22;10620;52.472;21.028;2022-08-03T11:46:58;29.10;55.30
20921;DHT22;10620;52.472;21.028;2022-08-03T11:49:30;29.40;55.90
20921;DHT22;10620;52.472;21.028;2022-08-03T11:51:59;29.40;59.80
20921;DHT22;10620;52.472;21.028;2022-08-03T11:54:31;29.70;61.20
20921;DHT22;10620;52.472;21.028;2022-08-03T11:57:00;30.00;61.70
20921;DHT22;10620;52.472;21.028;2022-08-03T11:59:30;30.30;64.80
20921;DHT22;10620;52.472;21.028;2022-08-03T12:02:06;30.60;59.10
20921;DHT22;10620;52.472;21.028;2022-08-03T12:04:48;30.30;58.50
20921;DHT22;10620;52.472;21.028;2022-08-03T12:07:17;30.40;57.40
20921;DHT22;10620;52.472;21.028;2022-08-03T12:10:06;30.50;54.10
20921;DHT22;10620;52.472;21.028;2022-08-03T12:12:35;28.90;51.20
20921;DHT22;10620;52.472;21.028;2022-08-03T12:15:04;30.50;52.50
20921;DHT22;10620;52.472;21.028;2022-08-03T12:17:35;30.60;54.20
20921;DHT22;10620;52.472;21.028;2022-08-03T12:20:05;31.20;53.60
20921;DHT22;10620;52.472;21.028;2022-08-03T12:22:34;32.00;46.50
20921;DHT22;10620;52.472;21.028;2022-08-03T12:25:04;33.10;48.30
20921;DHT22;10620;52.472;21.028;2022-08-03T12:27:34;33.70;43.80
20921;DHT22;10620;52.472;21.028;2022-08-03T12:30:03;33.40;42.60
20921;DHT22;10620;52.472;21.028;2022-08-03T12:32:32;33.80;42.60
20921;DHT22;10620;52.472;21.028;2022-08-03T12:35:02;34.20;43.80
20921;DHT22;10620;52.472;21.028;2022-08-03T12:37:34;34.80;39.50
20921;DHT22;10620;52.472;21.028;2022-08-03T12:40:04;34.70;36.90
20921;DHT22;10620;52.472;21.028;2022-08-03T12:42:37;34.40;41.60
20921;DHT22;10620;52.472;21.028;2022-08-03T12:45:22;34.50;42.00
20921;DHT22;10620;52.472;21.028;2022-08-03T12:47:51;34.30;41.00
20921;DHT22;10620;52.472;21.028;2022-08-03T12:50:26;34.00;40.60
20921;DHT22;10620;52.472;21.028;2022-08-03T12:52:55;34.40;39.90
20921;DHT22;10620;52.472;21.028;2022-08-03T12:55:24;34.10;41.20
20921;DHT22;10620;52.472;21.028;2022-08-03T12:58:33;33.90;40.20
20921;DHT22;10620;52.472;21.028;2022-08-03T13:01:03;32.40;41.30
20921;DHT22;10620;52.472;21.028;2022-08-03T13:03:40;31.00;44.00
20921;DHT22;10620;52.472;21.028;2022-08-03T13:06:18;30.60;48.00
20921;DHT22;10620;52.472;21.028;2022-08-03T13:08:47;30.20;45.90
20921;DHT22;10620;52.472;21.028;2022-08-03T13:11:18;30.10;47.00
20921;DHT22;10620;52.472;21.028;2022-08-03T13:13:47;29.90;47.80
20921;DHT22;10620;52.472;21.028;2022-08-03T13:16:16;29.80;46.30
20921;DHT22;10620;52.472;21.028;2022-08-03T13:18:46;29.60;46.90
20921;DHT22;10620;52.472;21.028;2022-08-03T13:21:14;29.30;45.30
20921;DHT22;10620;52.472;21.028;2022-08-03T13:23:45;29.00;46.00
20921;DHT22;10620;52.472;21.028;2022-08-03T13:26:14;28.90;47.70
20921;DHT22;10620;52.472;21.028;2022-08-03T13:28:43;28.90;47.50
20921;DHT22;10620;52.472;21.028;2022-08-03T13:31:11;28.90;47.50
20921;DHT22;10620;52.472;21.028;2022-08-03T13:33:40;28.70;47.70
20921;DHT22;10620;52.472;21.028;2022-08-03T13:36:09;28.70;53.60
20921;DHT22;10620;52.472;21.028;2022-08-03T13:38:38;28.90;52.30
20921;DHT22;10620;52.472;21.028;2022-08-03T13:41:08;29.00;50.60
20921;DHT22;10620;52.472;21.028;2022-08-03T13:43:42;28.90;53.10
20921;DHT22;10620;52.472;21.028;2022-08-03T13:46:12;29.10;52.30
20921;DHT22;10620;52.472;21.028;2022-08-03T13:48:41;29.00;52.30
20921;DHT22;10620;52.472;21.028;2022-08-03T13:51:10;28.90;54.20
20921;DHT22;10620;52.472;21.028;2022-08-03T13:53:49;29.00;51.80
20921;DHT22;10620;52.472;21.028;2022-08-03T13:56:19;29.10;49.70
20921;DHT22;10620;52.472;21.028;2022-08-03T13:59:18;28.90;52.30
20921;DHT22;10620;52.472;21.028;2022-08-03T14:01:47;29.00;51.30
20921;DHT22;10620;52.472;21.028;2022-08-03T14:04:22;28.80;52.20
20921;DHT22;10620;52.472;21.028;2022-08-03T14:06:51;28.90;53.70
20921;DHT22;10620;52.472;21.028;2022-08-03T14:09:19;28.90;53.00
20921;DHT22;10620;52.472;21.028;2022-08-03T14:11:55;28.90;51.80
20921;DHT22;10620;52.472;21.028;2022-08-03T14:14:35;28.90;50.60
20921;DHT22;10620;52.472;21.028;2022-08-03T14:17:03;28.70;51.40
20921;DHT22;10620;52.472;21.028;2022-08-03T14:19:32;28.70;55.10
20921;DHT22;10620;52.472;21.028;2022-08-03T14:22:20;28.70;53.70
20921;DHT22;10620;52.472;21.028;2022-08-03T14:24:48;28.70;49.80
20921;DHT22;10620;52.472;21.028;2022-08-03T14:27:19;28.70;51.40
20921;DHT22;10620;52.472;21.028;2022-08-03T14:29:48;28.70;49.30
20921;DHT22;10620;52.472;21.028;2022-08-03T14:32:17;28.80;51.00
20921;DHT22;10620;52.472;21.028;2022-08-03T14:34:45;28.90;52.20
20921;DHT22;10620;52.472;21.028;2022-08-03T14:37:14;28.90;52.20
20921;DHT22;10620;52.472;21.028;2022-08-03T14:39:43;28.90;51.00
20921;DHT22;10620;52.472;21.028;2022-08-03T14:42:30;28.70;52.90
20921;DHT22;10620;52.472;21.028;2022-08-03T14:44:58;28.70;51.00
20921;DHT22;10620;52.472;21.028;2022-08-03T14:47:33;28.60;51.10
20921;DHT22;10620;52.472;21.028;2022-08-03T14:50:22;28.70;51.90
20921;DHT22;10620;52.472;21.028;2022-08-03T14:53:07;28.90;53.80
20921;DHT22;10620;52.472;21.028;2022-08-03T14:55:35;28.90;52.50
20921;DHT22;10620;52.472;21.028;2022-08-03T14:58:17;29.10;51.90
20921;DHT22;10620;52.472;21.028;2022-08-03T15:00:48;28.90;51.90
20921;DHT22;10620;52.472;21.028;2022-08-03T15:03:17;29.00;54.90
20921;DHT22;10620;52.472;21.028;2022-08-03T15:05:50;29.20;51.20
20921;DHT22;10620;52.472;21.028;2022-08-03T15:08:19;29.30;50.80
20921;DHT22;10620;52.472;21.028;2022-08-03T15:10:48;29.40;51.90
20921;DHT22;10620;52.472;21.028;2022-08-03T15:13:18;29.70;50.60
20921;DHT22;10620;52.472;21.028;2022-08-03T15:15:47;29.70;49.70
20921;DHT22;10620;52.472;21.028;2022-08-03T15:18:18;29.50;51.00
20921;DHT22;10620;52.472;21.028;2022-08-03T15:20:47;29.60;52.60
20921;DHT22;10620;52.472;21.028;2022-08-03T15:23:17;29.60;51.50
20921;DHT22;10620;52.472;21.028;2022-08-03T15:25:46;29.30;51.80
20921;DHT22;10620;52.472;21.028;2022-08-03T15:28:36;29.00;51.50
20921;DHT22;10620;52.472;21.028;2022-08-03T15:31:05;28.90;53.50
20921;DHT22;10620;52.472;21.028;2022-08-03T15:33:34;29.20;52.60
20921;DHT22;10620;52.472;21.028;2022-08-03T15:36:03;29.40;53.00
20921;DHT22;10620;52.472;21.028;2022-08-03T15:38:31;29.30;54.80
20921;DHT22;10620;52.472;21.028;2022-08-03T15:41:00;29.30;54.70
20921;DHT22;10620;52.472;21.028;2022-08-03T15:43:29;29.50;50.80
20921;DHT22;10620;52.472;21.028;2022-08-03T15:45:59;29.40;50.70
20921;DHT22;10620;52.472;21.028;2022-08-03T15:48:49;29.50;52.00
20921;DHT22;10620;52.472;21.028;2022-08-03T15:51:18;29.60;51.80
20921;DHT22;10620;52.472;21.028;2022-08-03T15:53:46;29.70;50.80
20921;DHT22;10620;52.472;21.028;2022-08-03T15:56:15;29.80;50.20
20921;DHT22;10620;52.472;21.028;2022-08-03T15:58:45;30.00;49.60
20921;DHT22;10620;52.472;21.028;2022-08-03T16:01:35;30.00;53.20
20921;DHT22;10620;52.472;21.028;2022-08-03T16:04:04;29.80;53.60
20921;DHT22;10620;52.472;21.028;2022-08-03T16:06:33;29.70;53.10
20921;DHT22;10620;52.472;21.028;2022-08-03T16:09:03;29.80;50.50
20921;DHT22;10620;52.472;21.028;2022-08-03T16:11:52;30.30;49.80
20921;DHT22;10620;52.472;21.028;2022-08-03T16:14:21;30.00;53.30